Time;durP1;ratioP1;P1;durP2;ratioP2;P2;SDS_P1;SDS_P2;PMS_P1;PMS_P2;Temp;Humidity;BMP_temperature;BMP_pressure;BME280_temperature;BME280_humidity;BME280_pressure;Samples;Min_cycle;Max_cycle;Signal;HPM_P1;HPM_P2
2022/11/08 00:02:25;;;;;;;6.80;2.50;;;13.80;95.40;;;;;;5093930;28;20492;-69
2022/11/08 00:04:53;;;;;;;3.67;1.90;;;13.90;95.50;;;;;;5093527;28;20447;-69
2022/11/08 00:15:37;;;;;;;5.10;2.17;;;14.00;95.10;;;;;;5093903;28;21004;-69
2022/11/08 00:18:04;;;;;;;3.67;1.70;;;14.00;95.10;;;;;;5093433;28;20571;-70
2022/11/08 00:20:32;;;;;;;4.03;1.80;;;14.00;95.10;;;;;;5093440;28;20447;-69
2022/11/08 00:22:59;;;;;;;4.20;1.77;;;14.00;94.90;;;;;;5093649;28;20525;-69
2022/11/08 00:25:25;;;;;;;2.90;1.10;;;14.00;94.90;;;;;;5093461;28;20451;-69
2022/11/08 00:27:52;;;;;;;6.93;2.40;;;14.10;94.80;;;;;;5093324;28;20447;-69
2022/11/08 00:30:19;;;;;;;4.33;1.53;;;14.00;94.70;;;;;;5093520;28;20458;-69
2022/11/08 00:32:46;;;;;;;3.53;1.60;;;14.00;94.80;;;;;;5093567;28;20464;-69
2022/11/08 00:35:12;;;;;;;4.27;1.93;;;14.00;94.80;;;;;;5093245;28;20441;-69
2022/11/08 00:37:40;;;;;;;6.03;1.90;;;14.00;94.90;;;;;;5093268;28;20483;-69
2022/11/08 00:40:09;;;;;;;4.17;1.43;;;13.90;94.90;;;;;;5093316;28;20435;-69
2022/11/08 00:42:36;;;;;;;3.10;1.67;;;13.90;95.00;;;;;;5093577;28;20470;-69
2022/11/08 00:45:02;;;;;;;8.07;2.60;;;13.90;94.90;;;;;;5093213;28;20462;-69
2022/11/08 00:47:29;;;;;;;4.10;1.77;;;13.90;94.80;;;;;;5093080;28;20810;-69
2022/11/08 00:49:56;;;;;;;5.27;1.90;;;14.00;95.00;;;;;;5093294;28;20444;-69
2022/11/08 00:52:22;;;;;;;5.10;2.03;;;13.90;94.90;;;;;;5093226;28;20867;-69
2022/11/08 00:54:51;;;;;;;5.10;1.60;;;13.90;95.10;;;;;;5093217;28;20459;-69
2022/11/08 00:57:17;;;;;;;3.37;1.50;;;13.90;95.00;;;;;;5093079;28;21000;-69
2022/11/08 00:59:45;;;;;;;5.67;2.30;;;14.00;95.00;;;;;;5093249;28;20455;-69
2022/11/08 01:02:12;;;;;;;4.97;2.00;;;13.90;95.00;;;;;;5093581;28;20462;-69
2022/11/08 01:04:38;;;;;;;2.80;1.70;;;14.00;95.00;;;;;;5093134;28;20447;-69
2022/11/08 01:07:05;;;;;;;6.10;1.83;;;14.00;94.90;;;;;;5093002;28;20474;-70
2022/11/08 01:09:32;;;;;;;9.20;2.47;;;14.00;94.90;;;;;;5095468;28;20825;-69
2022/11/08 01:12:00;;;;;;;7.60;1.83;;;14.00;94.70;;;;;;5096727;28;20471;-69
2022/11/08 01:14:26;;;;;;;4.30;1.80;;;14.00;94.90;;;;;;5096326;28;20450;-69
2022/11/08 01:16:53;;;;;;;6.10;2.30;;;14.00;94.90;;;;;;5096604;28;20446;-69
2022/11/08 01:19:20;;;;;;;4.17;1.60;;;14.00;94.80;;;;;;5096388;28;20978;-69
2022/11/08 01:21:47;;;;;;;6.50;1.77;;;14.00;94.80;;;;;;5096481;28;20451;-69
2022/11/08 01:24:13;;;;;;;6.60;2.13;;;13.90;94.80;;;;;;5096549;28;20455;-69
2022/11/08 01:26:40;;;;;;;2.83;1.47;;;13.90;95.00;;;;;;5096485;28;20801;-69
2022/11/08 01:29:08;;;;;;;4.20;1.60;;;13.90;95.00;;;;;;5096390;28;20449;-69
2022/11/08 01:31:35;;;;;;;7.27;1.77;;;13.90;95.10;;;;;;5096705;28;20454;-69
2022/11/08 01:34:01;;;;;;;4.67;2.07;;;13.90;95.10;;;;;;5096367;28;20477;-69
2022/11/08 01:36:29;;;;;;;5.17;1.63;;;13.90;95.10;;;;;;5096203;28;20471;-69
2022/11/08 01:38:57;;;;;;;4.03;1.40;;;13.90;95.10;;;;;;5096212;28;20479;-69
2022/11/08 01:41:25;;;;;;;4.40;1.30;;;13.90;95.10;;;;;;5096231;28;20459;-69
2022/11/08 01:43:53;;;;;;;3.63;1.80;;;13.90;95.20;;;;;;5096200;28;20466;-69
2022/11/08 01:46:40;;;;;;;5.47;1.70;;;13.90;95.00;;;;;;5096560;28;20478;-69
2022/11/08 01:49:35;;;;;;;8.03;2.10;;;13.90;95.00;;;;;;5096575;28;20430;-69
2022/11/08 01:52:22;;;;;;;4.80;1.70;;;13.80;95.00;;;;;;5096484;28;20459;-69
2022/11/08 01:54:56;;;;;;;6.83;1.80;;;13.80;95.00;;;;;;5096184;28;20423;-69
2022/11/08 01:57:27;;;;;;;6.70;1.93;;;13.80;95.20;;;;;;5096339;28;20474;-69
2022/11/08 01:59:57;;;;;;;8.13;3.40;;;13.80;95.30;;;;;;5095997;28;20941;-69
2022/11/08 02:02:26;;;;;;;8.83;2.27;;;13.70;95.20;;;;;;5096186;28;20468;-69
2022/11/08 02:04:53;;;;;;;3.10;1.77;;;13.70;95.30;;;;;;5095921;28;20448;-69
2022/11/08 02:07:20;;;;;;;5.07;2.70;;;13.70;95.50;;;;;;5095686;28;20458;-69
2022/11/08 02:09:47;;;;;;;2.30;1.70;;;13.70;95.50;;;;;;5095791;28;20432;-69
2022/11/08 02:12:16;;;;;;;5.80;1.90;;;13.70;95.50;;;;;;5095423;28;20468;-69
2022/11/08 02:14:43;;;;;;;4.30;1.60;;;13.60;95.70;;;;;;5095484;28;20846;-69
2022/11/08 02:17:11;;;;;;;9.63;1.60;;;13.60;95.90;;;;;;5095124;28;20439;-69
2022/11/08 02:19:42;;;;;;;4.47;1.93;;;13.60;96.00;;;;;;5094959;28;20444;-70
2022/11/08 02:22:16;;;;;;;3.30;2.03;;;13.60;95.90;;;;;;5095522;28;20467;-69
2022/11/08 02:24:45;;;;;;;7.80;2.37;;;13.60;95.90;;;;;;5095840;28;20450;-69
2022/11/08 02:27:13;;;;;;;4.80;1.87;;;13.70;95.80;;;;;;5095634;28;20458;-69
2022/11/08 02:29:40;;;;;;;6.97;2.50;;;13.60;95.80;;;;;;5096017;28;20451;-69
2022/11/08 02:32:07;;;;;;;8.60;2.07;;;13.60;95.90;;;;;;5095406;28;20467;-69
2022/11/08 02:34:37;;;;;;;7.17;2.30;;;13.60;95.90;;;;;;5095431;28;20469;-69
2022/11/08 02:37:05;;;;;;;5.40;2.10;;;13.60;95.90;;;;;;5095064;28;20456;-69
2022/11/08 02:39:33;;;;;;;5.67;2.47;;;13.60;95.90;;;;;;5095311;28;20475;-69
2022/11/08 02:42:01;;;;;;;5.40;1.47;;;13.60;95.70;;;;;;5095638;28;20467;-69
2022/11/08 02:44:29;;;;;;;3.33;1.80;;;13.60;95.90;;;;;;5095228;28;20454;-69
2022/11/08 02:46:55;;;;;;;6.80;2.80;;;13.60;96.00;;;;;;5095259;28;20454;-69
2022/11/08 02:49:22;;;;;;;2.90;1.63;;;13.50;95.90;;;;;;5095131;28;20442;-69
2022/11/08 02:51:52;;;;;;;4.40;2.00;;;13.50;95.90;;;;;;5095040;28;20455;-69
2022/11/08 02:54:18;;;;;;;5.67;1.97;;;13.50;95.90;;;;;;5094775;28;20946;-69
2022/11/08 02:56:45;;;;;;;4.63;2.27;;;13.40;96.00;;;;;;5094760;28;20459;-69
2022/11/08 02:59:13;;;;;;;4.53;1.90;;;13.40;96.10;;;;;;5095185;28;20826;-69
2022/11/08 03:01:40;;;;;;;4.00;1.67;;;13.40;96.10;;;;;;5094397;28;20950;-69
2022/11/08 03:04:07;;;;;;;3.17;1.77;;;13.40;96.20;;;;;;5095040;28;20447;-69
2022/11/08 03:06:33;;;;;;;2.83;1.50;;;13.40;96.10;;;;;;5094826;28;20448;-69
2022/11/08 03:09:00;;;;;;;5.00;2.40;;;13.40;96.00;;;;;;5094640;28;20447;-69
2022/11/08 03:11:28;;;;;;;3.60;2.10;;;13.40;96.00;;;;;;5094474;28;20459;-69
2022/11/08 03:13:54;;;;;;;5.43;2.17;;;13.40;96.00;;;;;;5094729;28;20466;-69
2022/11/08 03:16:22;;;;;;;4.60;2.10;;;13.40;96.10;;;;;;5094468;28;20978;-69
2022/11/08 03:18:49;;;;;;;3.63;2.07;;;13.30;96.10;;;;;;5094406;28;20473;-69
2022/11/08 03:21:16;;;;;;;6.37;2.23;;;13.30;96.00;;;;;;5094671;28;20444;-69
2022/11/08 03:23:42;;;;;;;5.23;1.70;;;13.40;96.00;;;;;;5094637;28;20467;-69
2022/11/08 03:26:09;;;;;;;6.60;2.17;;;13.40;95.90;;;;;;5094287;28;20812;-69
2022/11/08 03:28:36;;;;;;;2.00;1.90;;;13.40;95.80;;;;;;5094757;28;20443;-69
2022/11/08 03:31:03;;;;;;;4.80;2.03;;;13.40;95.90;;;;;;5094694;28;20810;-69
2022/11/08 03:33:31;;;;;;;3.03;1.80;;;13.40;95.80;;;;;;5093688;28;20468;-69
2022/11/08 03:35:57;;;;;;;3.33;2.20;;;13.40;95.90;;;;;;5093793;28;20972;-69
2022/11/08 03:38:24;;;;;;;5.60;2.10;;;13.40;95.90;;;;;;5094252;28;20479;-69
2022/11/08 03:40:51;;;;;;;3.73;2.10;;;13.40;95.90;;;;;;5093863;28;20443;-69
2022/11/08 03:43:18;;;;;;;4.70;2.40;;;13.40;96.00;;;;;;5094291;28;20479;-69
2022/11/08 03:45:45;;;;;;;2.80;1.90;;;13.30;95.90;;;;;;5094069;28;20962;-69
2022/11/08 03:48:12;;;;;;;2.97;1.67;;;13.30;95.90;;;;;;5094176;28;20445;-69
2022/11/08 03:50:40;;;;;;;4.67;2.83;;;13.30;95.90;;;;;;5093915;28;20826;-69
2022/11/08 03:53:07;;;;;;;5.27;2.10;;;13.30;95.90;;;;;;5094319;28;20468;-69
2022/11/08 03:55:34;;;;;;;7.33;2.00;;;13.30;95.90;;;;;;5094238;28;20484;-69
2022/11/08 03:58:00;;;;;;;2.60;1.80;;;13.30;95.90;;;;;;5094260;28;20478;-69
2022/11/08 04:00:28;;;;;;;8.93;2.43;;;13.30;96.00;;;;;;5094430;28;20448;-69
2022/11/08 04:03:00;;;;;;;4.10;2.30;;;13.30;96.00;;;;;;5094617;28;20874;-69
2022/11/08 04:05:27;;;;;;;5.40;1.73;;;13.30;96.00;;;;;;5094140;28;20463;-69
2022/11/08 04:07:55;;;;;;;3.50;1.83;;;13.30;96.30;;;;;;5094148;28;20447;-69
2022/11/08 04:10:22;;;;;;;6.63;2.27;;;13.20;96.00;;;;;;5094284;28;20981;-69
2022/11/08 04:15:33;;;;;;;4.13;1.83;;;13.20;96.10;;;;;;5094294;28;20810;-69
2022/11/08 04:23:33;;;;;;;6.60;2.00;;;13.20;96.00;;;;;;5094259;28;20976;-69
2022/11/08 04:26:01;;;;;;;4.83;1.93;;;13.20;95.90;;;;;;5094100;28;20446;-69
2022/11/08 04:28:29;;;;;;;4.07;1.83;;;13.20;95.80;;;;;;5093545;28;20439;-69
2022/11/08 04:30:58;;;;;;;2.57;1.60;;;13.20;95.70;;;;;;5093847;28;20448;-69
2022/11/08 04:33:26;;;;;;;3.07;1.70;;;13.20;95.70;;;;;;5094191;28;20557;-69
2022/11/08 04:35:53;;;;;;;7.47;2.70;;;13.30;95.60;;;;;;5094378;28;20454;-69
2022/11/08 04:38:20;;;;;;;5.37;2.20;;;13.20;95.50;;;;;;5093987;28;20517;-69
2022/11/08 04:40:48;;;;;;;3.53;2.07;;;13.30;95.40;;;;;;5094009;28;20443;-69
2022/11/08 04:43:15;;;;;;;4.90;2.27;;;13.30;95.20;;;;;;5095296;28;20468;-69
2022/11/08 04:45:42;;;;;;;8.80;2.93;;;13.20;95.00;;;;;;5098331;28;20442;-69
2022/11/08 04:48:08;;;;;;;4.07;2.23;;;13.30;94.80;;;;;;5098517;28;20443;-69
2022/11/08 04:50:36;;;;;;;4.50;2.07;;;13.30;94.80;;;;;;5098299;28;20469;-69
2022/11/08 04:53:03;;;;;;;8.03;2.50;;;13.40;94.70;;;;;;5098559;28;20505;-69
2022/11/08 04:55:30;;;;;;;3.50;2.10;;;13.30;94.40;;;;;;5099043;28;20455;-69
2022/11/08 04:57:58;;;;;;;5.00;2.30;;;13.30;94.40;;;;;;5099231;28;20444;-69
2022/11/08 05:00:26;;;;;;;8.00;3.37;;;13.30;94.30;;;;;;5098896;28;20440;-69
2022/11/08 05:02:53;;;;;;;5.40;2.40;;;13.40;94.20;;;;;;5098654;28;20460;-69
2022/11/08 05:05:21;;;;;;;5.90;3.17;;;13.40;94.10;;;;;;5099052;28;20448;-69
2022/11/08 05:07:48;;;;;;;5.03;3.60;;;13.40;94.00;;;;;;5100000;28;20451;-69
2022/11/08 05:10:15;;;;;;;5.90;3.60;;;13.40;94.10;;;;;;5099646;28;20445;-69
2022/11/08 05:12:41;;;;;;;4.53;2.73;;;13.40;94.10;;;;;;5099941;28;20478;-69
2022/11/08 05:15:10;;;;;;;6.43;2.50;;;13.40;94.10;;;;;;5099324;28;20445;-69
2022/11/08 05:17:37;;;;;;;6.53;2.30;;;13.50;94.10;;;;;;5099605;28;20451;-69
2022/11/08 05:25:37;;;;;;;4.73;2.23;;;13.40;94.20;;;;;;5100458;28;20419;-69
2022/11/08 05:28:04;;;;;;;4.40;2.40;;;13.40;94.30;;;;;;5099672;28;20791;-69
2022/11/08 05:30:33;;;;;;;5.23;2.63;;;13.40;94.30;;;;;;5099253;28;20448;-69
2022/11/08 05:33:00;;;;;;;4.50;2.50;;;13.30;94.50;;;;;;5100689;28;20467;-69
2022/11/08 05:35:27;;;;;;;4.53;2.50;;;13.30;94.50;;;;;;5100428;28;20448;-68
2022/11/08 05:37:53;;;;;;;4.33;2.77;;;13.20;94.50;;;;;;5100324;28;20451;-69
2022/11/08 05:40:20;;;;;;;5.53;2.50;;;13.20;94.60;;;;;;5100132;28;20483;-69
2022/11/08 05:42:47;;;;;;;4.57;2.60;;;13.20;94.60;;;;;;5099779;28;20466;-69
2022/11/08 05:45:13;;;;;;;5.60;3.10;;;13.10;94.70;;;;;;5100334;28;20474;-67
2022/11/08 05:47:45;;;;;;;4.13;2.43;;;13.10;94.70;;;;;;5098220;28;20953;-69
2022/11/08 05:50:12;;;;;;;4.30;3.10;;;13.00;94.80;;;;;;5098145;28;20954;-70
2022/11/08 05:52:38;;;;;;;4.40;3.20;;;13.00;95.00;;;;;;5098205;28;20467;-69
2022/11/08 05:55:06;;;;;;;9.07;3.57;;;13.00;95.00;;;;;;5098222;28;20443;-69
2022/11/08 05:57:33;;;;;;;6.60;2.60;;;13.00;94.90;;;;;;5102476;28;20448;-70
2022/11/08 05:59:59;;;;;;;7.70;3.50;;;12.90;94.90;;;;;;5102025;28;20482;-70
2022/11/08 06:02:28;;;;;;;6.13;3.60;;;12.90;95.00;;;;;;5102461;28;20825;-70
2022/11/08 06:04:56;;;;;;;3.40;3.10;;;12.90;94.90;;;;;;5103101;28;20501;-70
2022/11/08 06:07:23;;;;;;;3.47;3.10;;;12.90;94.90;;;;;;5106977;28;20448;-67
2022/11/08 06:09:49;;;;;;;4.60;3.40;;;12.90;95.00;;;;;;5106364;28;20791;-67
2022/11/08 06:12:16;;;;;;;10.60;4.57;;;12.90;95.30;;;;;;5105778;28;20473;-70
2022/11/08 06:14:43;;;;;;;7.07;4.20;;;12.90;94.90;;;;;;5101891;28;20455;-70
2022/11/08 06:17:09;;;;;;;6.67;4.03;;;12.80;94.90;;;;;;5101793;28;20444;-70
2022/11/08 06:19:36;;;;;;;5.13;3.73;;;12.80;94.90;;;;;;5106065;28;20475;-70
2022/11/08 06:22:04;;;;;;;5.40;4.40;;;12.80;95.00;;;;;;5106953;28;20475;-68
2022/11/08 06:24:31;;;;;;;5.53;4.10;;;12.80;95.10;;;;;;5106926;28;20452;-70
2022/11/08 06:26:57;;;;;;;5.40;3.97;;;12.80;95.40;;;;;;5097205;28;20451;-70
2022/11/08 06:29:24;;;;;;;5.00;3.73;;;12.80;94.90;;;;;;5096230;28;20450;-68
2022/11/08 06:31:51;;;;;;;7.83;4.17;;;12.80;94.80;;;;;;5097337;28;20454;-67
2022/11/08 06:34:18;;;;;;;6.87;3.93;;;12.80;94.90;;;;;;5095662;28;20447;-68
2022/11/08 06:36:45;;;;;;;9.60;6.77;;;12.80;94.80;;;;;;5095672;28;20457;-68
2022/11/08 06:39:13;;;;;;;5.40;3.67;;;12.80;94.50;;;;;;5096794;28;20517;-68
2022/11/08 06:41:39;;;;;;;10.43;3.90;;;12.80;94.10;;;;;;5096793;28;20450;-68
2022/11/08 06:44:06;;;;;;;5.00;3.27;;;12.80;94.00;;;;;;5096338;28;20908;-68
2022/11/08 06:46:33;;;;;;;5.13;3.13;;;12.80;94.00;;;;;;5096120;28;20424;-67
2022/11/08 06:48:59;;;;;;;7.27;3.20;;;12.80;93.40;;;;;;5095008;28;20955;-69
2022/11/08 06:51:26;;;;;;;6.87;3.03;;;12.90;93.10;;;;;;5095190;28;20440;-70
2022/11/08 06:53:53;;;;;;;3.40;3.00;;;12.90;93.00;;;;;;5094952;28;20467;-70
2022/11/08 06:56:21;;;;;;;3.73;2.93;;;12.90;92.70;;;;;;5095155;28;20444;-67
2022/11/08 06:58:47;;;;;;;6.20;3.10;;;12.90;92.70;;;;;;5094844;28;20498;-68
2022/11/08 07:01:14;;;;;;;3.53;2.70;;;13.00;92.70;;;;;;5094487;28;20959;-70
2022/11/08 07:03:41;;;;;;;5.73;2.80;;;13.00;92.50;;;;;;5094513;28;20994;-70
2022/11/08 07:06:08;;;;;;;3.40;2.80;;;13.10;92.20;;;;;;5094490;28;20851;-70
2022/11/08 07:08:35;;;;;;;4.40;2.97;;;13.10;92.20;;;;;;5094352;28;20977;-68
2022/11/08 07:11:03;;;;;;;4.20;2.87;;;13.10;92.20;;;;;;5094663;28;20451;-68
2022/11/08 07:13:31;;;;;;;6.90;2.90;;;13.10;92.30;;;;;;5094650;28;20475;-68
2022/11/08 07:15:59;;;;;;;4.57;2.33;;;13.10;92.00;;;;;;5094672;28;20461;-69
2022/11/08 07:18:26;;;;;;;3.90;2.80;;;13.20;91.80;;;;;;5096007;28;20451;-68
2022/11/08 07:20:53;;;;;;;6.80;2.87;;;13.20;91.60;;;;;;5094599;28;20482;-69
2022/11/08 07:23:20;;;;;;;3.67;2.70;;;13.20;91.80;;;;;;5095226;28;20838;-69
2022/11/08 07:25:47;;;;;;;8.23;2.73;;;13.20;91.70;;;;;;5094945;28;20424;-69
2022/11/08 07:28:16;;;;;;;7.10;2.73;;;13.20;91.60;;;;;;5094694;28;20431;-70
2022/11/08 07:30:45;;;;;;;4.43;2.23;;;13.30;91.70;;;;;;5094572;28;20473;-70
2022/11/08 07:33:12;;;;;;;5.83;3.13;;;13.30;91.70;;;;;;5094096;28;20983;-69
2022/11/08 07:35:39;;;;;;;4.13;2.23;;;13.40;91.70;;;;;;5094771;28;20459;-69
2022/11/08 07:38:06;;;;;;;5.67;3.00;;;13.40;91.90;;;;;;5094744;28;20851;-71
2022/11/08 07:40:34;;;;;;;5.13;3.20;;;13.40;92.10;;;;;;5094396;28;20479;-70
2022/11/08 07:43:01;;;;;;;3.47;2.90;;;13.50;92.10;;;;;;5094670;28;20495;-70
2022/11/08 07:45:28;;;;;;;5.57;2.20;;;13.50;91.60;;;;;;5094638;28;20446;-69
2022/11/08 07:48:01;;;;;;;4.13;2.07;;;13.60;90.90;;;;;;5093898;28;20954;-69
2022/11/08 07:50:28;;;;;;;4.43;1.87;;;13.60;90.40;;;;;;5094090;28;20444;-69
2022/11/08 07:52:55;;;;;;;4.43;2.17;;;13.60;90.20;;;;;;5094114;28;20464;-70
2022/11/08 07:55:22;;;;;;;3.33;1.53;;;13.50;90.20;;;;;;5094022;28;20442;-68
2022/11/08 07:57:49;;;;;;;2.90;1.63;;;13.60;89.90;;;;;;5094025;28;20449;-69
2022/11/08 08:00:16;;;;;;;4.50;1.90;;;13.60;89.60;;;;;;5093566;28;20491;-69
2022/11/08 08:02:43;;;;;;;3.60;1.50;;;13.70;89.40;;;;;;5093437;28;20475;-69
2022/11/08 08:05:11;;;;;;;3.60;2.13;;;13.70;88.70;;;;;;5094072;28;20447;-67
2022/11/08 08:07:38;;;;;;;2.93;1.70;;;13.80;89.00;;;;;;5094079;28;20443;-69
2022/11/08 08:10:05;;;;;;;2.87;1.90;;;13.80;88.30;;;;;;5093626;28;20992;-69
2022/11/08 08:12:32;;;;;;;4.67;2.10;;;13.90;88.20;;;;;;5093782;28;20977;-69
2022/11/08 08:14:58;;;;;;;3.30;1.90;;;14.00;87.50;;;;;;5093938;28;20450;-70
2022/11/08 08:17:26;;;;;;;3.10;2.00;;;14.00;87.60;;;;;;5093806;28;20454;-70
2022/11/08 08:19:52;;;;;;;5.17;1.80;;;14.00;87.00;;;;;;5096935;28;20482;-69
2022/11/08 08:22:20;;;;;;;2.60;1.67;;;14.00;87.20;;;;;;5097933;28;20525;-69
2022/11/08 08:24:47;;;;;;;2.10;1.67;;;14.10;87.30;;;;;;5097853;28;20448;-70
2022/11/08 08:27:14;;;;;;;3.20;2.27;;;14.10;86.20;;;;;;5097985;28;20427;-69
2022/11/08 08:29:41;;;;;;;3.83;1.67;;;14.10;86.10;;;;;;5097984;28;20446;-69
2022/11/08 08:32:07;;;;;;;5.93;2.17;;;14.10;86.00;;;;;;5097868;28;20482;-69
2022/11/08 08:34:34;;;;;;;2.40;1.60;;;14.10;86.10;;;;;;5098203;28;20455;-70
2022/11/08 08:37:01;;;;;;;2.00;1.30;;;14.20;85.90;;;;;;5097885;28;20454;-70
2022/11/08 08:39:29;;;;;;;4.60;2.23;;;14.20;85.40;;;;;;5097896;28;20537;-66
2022/11/08 08:41:56;;;;;;;6.30;2.50;;;14.20;84.80;;;;;;5097973;28;20451;-69
2022/11/08 08:44:22;;;;;;;5.03;1.60;;;14.20;84.90;;;;;;5097580;28;20447;-69
2022/11/08 08:46:49;;;;;;;7.30;1.80;;;14.30;85.10;;;;;;5097512;28;20444;-69
2022/11/08 08:49:16;;;;;;;3.53;1.50;;;14.30;84.50;;;;;;5097712;28;20454;-70
2022/11/08 08:51:43;;;;;;;4.20;3.30;;;14.30;84.60;;;;;;5097694;28;20443;-70
2022/11/08 08:54:10;;;;;;;4.67;2.10;;;14.30;84.80;;;;;;5097601;28;20443;-70
2022/11/08 08:56:38;;;;;;;3.10;1.63;;;14.30;84.20;;;;;;5097531;28;20554;-70
2022/11/08 08:59:05;;;;;;;4.07;2.10;;;14.40;84.20;;;;;;5097160;28;20436;-70
2022/11/08 09:01:31;;;;;;;6.63;2.13;;;14.40;83.70;;;;;;5097805;28;20451;-70
2022/11/08 09:03:58;;;;;;;3.67;1.97;;;14.50;83.50;;;;;;5097264;28;20834;-69
2022/11/08 09:06:25;;;;;;;2.30;1.77;;;14.50;83.70;;;;;;5097704;28;20440;-69
2022/11/08 09:08:52;;;;;;;4.60;2.10;;;14.60;83.10;;;;;;5097962;28;20450;-69
2022/11/08 09:11:19;;;;;;;1.90;1.60;;;14.60;83.00;;;;;;5096867;28;20796;-69
2022/11/08 09:13:47;;;;;;;4.20;1.80;;;14.60;82.90;;;;;;5096584;28;20466;-69
2022/11/08 09:16:14;;;;;;;2.60;1.70;;;14.70;82.90;;;;;;5097034;28;20825;-69
2022/11/08 09:18:41;;;;;;;4.83;1.80;;;14.70;81.80;;;;;;5096673;28;20440;-70
2022/11/08 09:21:08;;;;;;;3.60;2.60;;;14.80;81.80;;;;;;5096717;28;20566;-69
2022/11/08 09:23:34;;;;;;;2.73;1.80;;;14.80;81.50;;;;;;5096569;28;20474;-68
2022/11/08 09:26:03;;;;;;;2.13;1.93;;;14.80;81.40;;;;;;5096731;28;20453;-69
2022/11/08 09:28:31;;;;;;;2.50;2.13;;;14.80;81.10;;;;;;5096518;28;20451;-69
2022/11/08 09:31:01;;;;;;;3.43;1.90;;;14.90;81.10;;;;;;5096541;28;20440;-69
2022/11/08 09:33:30;;;;;;;4.10;1.60;;;15.00;80.90;;;;;;5096541;28;20460;-69
2022/11/08 09:35:58;;;;;;;3.10;1.80;;;15.10;80.10;;;;;;5098259;28;20464;-68
2022/11/08 09:38:25;;;;;;;3.73;2.00;;;15.10;79.20;;;;;;5096978;28;20432;-69
2022/11/08 09:41:02;;;;;;;5.00;1.80;;;15.20;78.70;;;;;;5096425;28;20486;-69
2022/11/08 09:43:40;;;;;;;3.17;1.50;;;15.30;79.40;;;;;;5096183;28;20479;-69
2022/11/08 09:46:11;;;;;;;2.13;1.60;;;15.40;78.80;;;;;;5096145;28;20922;-69
2022/11/08 09:48:41;;;;;;;2.23;1.33;;;15.50;77.70;;;;;;5096033;28;20903;-69
2022/11/08 09:51:14;;;;;;;1.97;1.23;;;15.60;76.50;;;;;;5096446;28;20417;-70
2022/11/08 09:53:48;;;;;;;2.47;2.00;;;15.70;75.60;;;;;;5095918;28;20942;-70
2022/11/08 09:56:22;;;;;;;1.77;1.20;;;15.70;74.90;;;;;;5096273;28;20436;-70
2022/11/08 09:58:53;;;;;;;1.53;1.20;;;15.70;75.50;;;;;;5095961;28;20466;-71
2022/11/08 10:01:22;;;;;;;3.13;1.70;;;15.80;74.00;;;;;;5096422;28;20464;-69
2022/11/08 10:03:53;;;;;;;1.90;1.57;;;15.80;73.70;;;;;;5095906;28;20463;-69
2022/11/08 10:06:48;;;;;;;1.87;1.60;;;15.70;72.70;;;;;;5095994;28;20432;-69
2022/11/08 10:09:33;;;;;;;7.10;1.60;;;15.70;72.60;;;;;;5095891;28;20433;-69
2022/11/08 10:12:11;;;;;;;2.80;2.00;;;15.80;72.80;;;;;;5095743;28;20460;-69
2022/11/08 10:14:50;;;;;;;4.20;1.90;;;15.80;72.50;;;;;;5095834;28;20432;-69
2022/11/08 10:17:34;;;;;;;4.27;1.30;;;15.90;73.00;;;;;;5095733;28;20439;-69
2022/11/08 10:20:14;;;;;;;3.43;1.97;;;15.90;72.10;;;;;;5095470;28;20491;-69
2022/11/08 10:22:51;;;;;;;2.57;1.17;;;16.00;71.90;;;;;;5095647;28;20471;-69
2022/11/08 10:25:29;;;;;;;5.20;1.50;;;16.10;71.60;;;;;;5097524;28;20438;-68
2022/11/08 10:28:00;;;;;;;1.73;1.43;;;16.10;70.70;;;;;;5097609;28;20819;-69
2022/11/08 10:30:33;;;;;;;4.57;1.70;;;16.20;70.40;;;;;;5096001;28;20432;-69
2022/11/08 10:33:01;;;;;;;1.93;1.63;;;16.30;69.60;;;;;;5095359;28;20464;-69
2022/11/08 10:35:35;;;;;;;2.20;1.47;;;16.40;69.10;;;;;;5095213;28;20800;-68
2022/11/08 10:38:10;;;;;;;6.00;1.90;;;16.50;69.70;;;;;;5095245;28;20431;-68
2022/11/08 10:40:42;;;;;;;2.57;1.30;;;16.70;68.90;;;;;;5094929;28;20970;-68
2022/11/08 10:43:12;;;;;;;1.93;1.50;;;16.80;68.00;;;;;;5094812;28;20472;-68
2022/11/08 10:45:38;;;;;;;3.47;1.70;;;16.90;67.30;;;;;;5095124;28;20440;-68
2022/11/08 10:48:09;;;;;;;3.53;1.60;;;17.00;66.90;;;;;;5094570;28;20958;-68
2022/11/08 10:50:43;;;;;;;3.13;1.60;;;17.10;66.60;;;;;;5094879;28;20424;-68
2022/11/08 10:53:17;;;;;;;4.03;1.70;;;17.40;65.70;;;;;;5094949;28;20491;-69
2022/11/08 10:55:49;;;;;;;3.10;1.60;;;17.60;64.80;;;;;;5094575;28;20459;-69
2022/11/08 10:58:32;;;;;;;2.30;1.47;;;17.80;64.10;;;;;;5094838;28;20440;-68
2022/11/08 11:01:05;;;;;;;2.47;1.70;;;17.90;63.40;;;;;;5094469;28;20837;-69
2022/11/08 11:03:34;;;;;;;2.23;1.60;;;18.10;63.20;;;;;;5094661;28;20836;-68
2022/11/08 11:06:03;;;;;;;2.03;1.57;;;18.30;62.20;;;;;;5094434;28;20970;-69
2022/11/08 11:08:30;;;;;;;4.03;1.60;;;18.50;61.70;;;;;;5094682;28;20448;-68
2022/11/08 11:11:22;;;;;;;7.40;1.40;;;18.80;59.90;;;;;;5094993;28;20444;-68
2022/11/08 11:14:05;;;;;;;4.50;1.73;;;18.90;59.50;;;;;;5094501;28;20464;-69
2022/11/08 11:16:32;;;;;;;3.60;1.20;;;19.00;59.20;;;;;;5094611;28;20436;-69
2022/11/08 11:19:02;;;;;;;2.10;1.40;;;19.00;59.00;;;;;;5094437;28;20447;-69
2022/11/08 11:21:35;;;;;;;1.47;1.37;;;18.90;59.20;;;;;;5094275;28;20476;-69
2022/11/08 11:24:08;;;;;;;3.10;1.87;;;18.80;59.90;;;;;;5094565;28;20431;-69
2022/11/08 11:26:40;;;;;;;2.30;1.60;;;18.60;59.70;;;;;;5095373;28;20820;-69
2022/11/08 11:29:19;;;;;;;2.10;1.67;;;18.60;61.10;;;;;;5094370;28;20432;-69
2022/11/08 11:31:48;;;;;;;2.43;1.60;;;18.50;61.50;;;;;;5094229;28;20463;-69
2022/11/08 11:34:32;;;;;;;3.77;1.93;;;18.40;62.00;;;;;;5094219;28;20830;-69
2022/11/08 11:37:12;;;;;;;4.80;2.13;;;18.40;62.40;;;;;;5093834;28;20463;-68
2022/11/08 11:39:44;;;;;;;4.10;1.67;;;18.30;62.60;;;;;;5093894;28;20934;-68
2022/11/08 11:42:16;;;;;;;2.13;1.83;;;18.20;63.50;;;;;;5093954;28;20470;-68
2022/11/08 11:44:55;;;;;;;2.17;1.70;;;18.30;64.90;;;;;;5094116;28;20439;-68
2022/11/08 11:47:29;;;;;;;1.77;1.60;;;18.30;65.20;;;;;;5093908;28;20432;-69
2022/11/08 11:50:01;;;;;;;3.40;1.73;;;18.40;64.80;;;;;;5093895;28;20942;-69
2022/11/08 11:52:28;;;;;;;2.20;1.60;;;18.50;64.50;;;;;;5093693;28;20472;-69
2022/11/08 11:54:55;;;;;;;2.30;1.50;;;18.60;64.00;;;;;;5093566;28;20811;-69
2022/11/08 11:57:33;;;;;;;1.33;1.23;;;18.70;64.20;;;;;;5094328;28;20455;-69
2022/11/08 12:00:05;;;;;;;3.17;1.73;;;18.70;64.10;;;;;;5108435;28;20424;-68
2022/11/08 12:03:07;;;;;;;3.17;1.50;;;18.70;62.80;;;;;;5108781;28;20467;-67
2022/11/08 12:06:04;;;;;;;2.43;1.47;;;18.90;63.10;;;;;;5108262;28;20432;-67
2022/11/08 12:08:42;;;;;;;2.03;1.40;;;19.00;62.60;;;;;;5108459;28;20440;-67
2022/11/08 12:11:32;;;;;;;4.27;1.40;;;19.20;61.70;;;;;;5107774;28;20428;-67
2022/11/08 12:14:14;;;;;;;7.30;1.93;;;19.40;60.80;;;;;;5108708;28;20478;-67
2022/11/08 12:16:48;;;;;;;2.10;1.53;;;19.50;60.00;;;;;;5108832;28;20446;-67
2022/11/08 12:19:35;;;;;;;2.27;1.40;;;19.70;58.50;;;;;;5107618;28;20931;-67
2022/11/08 12:22:21;;;;;;;4.60;1.53;;;20.10;58.30;;;;;;5107940;28;20633;-67
2022/11/08 12:24:55;;;;;;;2.10;1.10;;;20.50;57.20;;;;;;5108027;28;20439;-68
2022/11/08 12:27:34;;;;;;;3.87;1.83;;;20.70;56.40;;;;;;5108344;28;20424;-68
2022/11/08 12:30:04;;;;;;;2.57;1.17;;;20.90;56.20;;;;;;5109145;28;20428;-68
2022/11/08 12:32:46;;;;;;;3.80;1.63;;;21.10;55.10;;;;;;5108504;28;20467;-67
2022/11/08 12:35:24;;;;;;;4.50;1.43;;;21.10;54.70;;;;;;5109033;28;20429;-67
2022/11/08 12:38:04;;;;;;;6.70;1.70;;;21.10;55.20;;;;;;5108390;28;20447;-67
2022/11/08 12:40:37;;;;;;;2.93;1.83;;;21.00;55.10;;;;;;5108926;28;20464;-67
2022/11/08 12:43:21;;;;;;;1.43;1.33;;;20.70;55.20;;;;;;5109404;28;20456;-67
2022/11/08 12:46:00;;;;;;;1.93;1.40;;;20.60;55.90;;;;;;5109408;28;20435;-67
2022/11/08 12:48:49;;;;;;;4.40;1.57;;;20.50;54.70;;;;;;5108841;28;20435;-67
2022/11/08 12:51:24;;;;;;;3.70;1.60;;;20.40;55.00;;;;;;5108790;28;20428;-67
2022/11/08 12:54:12;;;;;;;4.10;1.30;;;20.40;55.10;;;;;;5108501;28;20463;-67
2022/11/08 12:56:43;;;;;;;2.63;1.43;;;20.30;55.10;;;;;;5108577;28;20428;-67
2022/11/08 12:59:19;;;;;;;1.93;1.27;;;20.20;55.50;;;;;;5106635;28;20432;-67
2022/11/08 13:01:47;;;;;;;3.97;1.60;;;20.10;55.90;;;;;;5108393;28;20467;-67
2022/11/08 13:04:40;;;;;;;4.70;1.60;;;20.10;56.10;;;;;;5108822;28;20447;-67
2022/11/08 13:07:17;;;;;;;5.20;2.00;;;20.10;56.40;;;;;;5112551;28;20804;-67
2022/11/08 13:09:52;;;;;;;7.93;1.77;;;20.10;56.80;;;;;;5111893;28;20906;-67
2022/11/08 13:12:33;;;;;;;3.13;2.17;;;20.10;55.60;;;;;;5113297;28;20455;-67
2022/11/08 13:15:00;;;;;;;7.50;2.13;;;20.00;55.70;;;;;;5112988;28;20432;-67
2022/11/08 13:17:28;;;;;;;3.73;1.47;;;19.80;56.10;;;;;;5113490;28;20462;-67
2022/11/08 13:20:00;;;;;;;2.20;1.67;;;19.70;55.70;;;;;;5112522;28;20448;-67
2022/11/08 13:23:07;;;;;;;2.53;1.40;;;19.60;56.40;;;;;;5112438;28;20494;-67
2022/11/08 13:25:40;;;;;;;5.73;1.50;;;19.60;56.90;;;;;;5112419;28;20440;-67